Time;durP1;ratioP1;P1;durP2;ratioP2;P2;SDS_P1;SDS_P2;PMS_P1;PMS_P2;Temp;Humidity;BMP_temperature;BMP_pressure;BME280_temperature;BME280_humidity;BME280_pressure;Samples;Min_cycle;Max_cycle;Signal;HPM_P1;HPM_P2
2023/03/29 00:00:38;;;;;;;0.30;0.20;;;;;;;5.19;44.80;95526.81;5131752;28;20442;-55
2023/03/29 00:03:06;;;;;;;0.30;0.20;;;;;;;4.42;40.32;95526.09;5132072;28;20478;-55
2023/03/29 00:05:39;;;;;;;0.30;0.20;;;;;;;5.21;50.21;95538.69;5131754;27;20467;-55
2023/03/29 00:08:13;;;;;;;0.40;0.30;;;;;;;5.18;37.83;95527.81;5132460;27;20530;-55
2023/03/29 00:10:41;;;;;;;0.30;0.20;;;;;;;5.69;40.00;95531.25;5131756;27;20554;-55
2023/03/29 00:13:10;;;;;;;0.30;0.30;;;;;;;5.77;39.30;95516.94;5131674;28;20436;-54
2023/03/29 00:15:41;;;;;;;0.30;0.20;;;;;;;5.77;41.12;95545.88;5131952;28;20470;-55
2023/03/29 00:18:09;;;;;;;0.30;0.20;;;;;;;5.81;54.97;95476.00;5131881;28;20522;-55
2023/03/29 00:20:38;;;;;;;0.30;0.20;;;;;;;6.30;42.54;95541.09;5118106;28;20440;-55
2023/03/29 00:23:06;;;;;;;0.30;0.20;;;;;;;5.79;43.30;95536.72;5131388;28;20464;-55
2023/03/29 00:25:34;;;;;;;0.30;0.20;;;;;;;4.88;39.17;95543.72;5130992;28;20579;-55
2023/03/29 00:28:03;;;;;;;0.30;0.20;;;;;;;4.69;43.28;95547.44;5131581;28;20430;-55
2023/03/29 00:30:31;;;;;;;1.57;0.43;;;;;;;5.02;44.05;95555.59;5132729;27;20518;-54
2023/03/29 00:33:01;;;;;;;0.30;0.20;;;;;;;5.01;47.20;95554.78;5135036;27;20442;-54
2023/03/29 00:35:29;;;;;;;0.30;0.30;;;;;;;4.95;40.21;95545.19;5135748;27;20442;-54
2023/03/29 00:37:57;;;;;;;0.30;0.20;;;;;;;5.45;40.34;95547.31;5135227;27;20487;-54
2023/03/29 00:40:26;;;;;;;0.30;0.20;;;;;;;5.66;44.18;95517.78;5134424;27;20465;-54
2023/03/29 00:42:56;;;;;;;0.30;0.20;;;;;;;5.52;40.62;95553.25;5133703;27;20442;-55
2023/03/29 00:45:29;;;;;;;0.30;0.20;;;;;;;4.61;43.83;95564.31;5134064;27;20466;-54
2023/03/29 00:48:01;;;;;;;0.30;0.20;;;;;;;4.50;40.07;95557.25;5134141;27;20466;-54
2023/03/29 00:50:35;;;;;;;0.40;0.30;;;;;;;4.58;40.25;95562.16;5134880;27;20439;-54
2023/03/29 00:53:07;;;;;;;0.30;0.20;;;;;;;4.46;41.84;95558.72;5135120;27;20432;-55
2023/03/29 00:55:38;;;;;;;0.30;0.20;;;;;;;4.61;44.44;95572.19;5134244;27;20442;-54
2023/03/29 00:58:11;;;;;;;0.40;0.30;;;;;;;4.53;42.01;95580.41;5135291;27;20817;-54
2023/03/29 01:00:47;;;;;;;0.30;0.20;;;;;;;5.18;43.27;95564.59;5134425;27;20434;-54
2023/03/29 01:03:23;;;;;;;0.30;0.20;;;;;;;5.61;47.15;95575.53;5135124;27;20517;-55
2023/03/29 01:05:58;;;;;;;0.30;0.20;;;;;;;5.52;42.91;95579.53;5134156;27;20478;-55
2023/03/29 01:08:32;;;;;;;0.30;0.20;;;;;;;5.09;48.86;95543.13;5134982;27;20463;-54
2023/03/29 01:11:04;;;;;;;0.30;0.20;;;;;;;4.56;45.32;95584.41;5132840;27;20436;-54
2023/03/29 01:13:38;;;;;;;0.40;0.30;;;;;;;4.79;48.14;95550.31;5134390;27;20493;-54
2023/03/29 01:16:09;;;;;;;0.30;0.20;;;;;;;4.62;42.18;95588.75;5134550;27;20487;-54
2023/03/29 01:18:38;;;;;;;0.30;0.20;;;;;;;5.08;45.38;95588.81;5134160;27;20427;-54
2023/03/29 01:21:22;;;;;;;0.50;0.40;;;;;;;5.38;49.34;95586.88;5133802;27;20478;-54
2023/03/29 01:24:20;;;;;;;0.30;0.20;;;;;;;5.71;50.03;95591.53;5133956;27;20537;-54
2023/03/29 01:26:57;;;;;;;0.43;0.43;;;;;;;5.34;56.12;95598.84;5121092;27;20566;-54
2023/03/29 01:29:30;;;;;;;0.30;0.20;;;;;;;5.07;42.30;95602.97;5134767;27;20463;-54
2023/03/29 01:32:04;;;;;;;0.30;0.20;;;;;;;5.00;44.05;95600.47;5134838;27;20439;-54
2023/03/29 01:34:38;;;;;;;0.30;0.20;;;;;;;4.98;46.39;95563.09;5134506;27;20439;-54
2023/03/29 01:37:14;;;;;;;0.30;0.20;;;;;;;5.00;42.01;95587.34;5134481;27;20443;-54
2023/03/29 01:39:42;;;;;;;0.30;0.20;;;;;;;5.27;48.65;95602.63;5134460;27;20435;-54
2023/03/29 01:42:20;;;;;;;0.30;0.20;;;;;;;5.61;47.23;95601.81;5132966;27;20435;-54
2023/03/29 01:44:57;;;;;;;0.30;0.20;;;;;;;5.86;55.19;95578.72;5134175;27;20510;-54
2023/03/29 01:47:32;;;;;;;0.30;0.20;;;;;;;5.61;43.31;95599.19;5134192;27;20484;-54
2023/03/29 01:50:11;;;;;;;0.30;0.20;;;;;;;5.66;41.43;95596.66;5107873;27;20434;-54
2023/03/29 01:52:42;;;;;;;0.30;0.20;;;;;;;5.36;44.27;95601.28;5134255;27;20470;-54
2023/03/29 01:55:16;;;;;;;0.30;0.20;;;;;;;5.57;45.29;95604.09;5123338;27;20443;-54
2023/03/29 01:57:46;;;;;;;0.30;0.20;;;;;;;5.94;51.27;95596.75;5132354;27;20814;-54
2023/03/29 02:00:19;;;;;;;0.30;0.20;;;;;;;5.07;43.56;95598.53;5133585;27;20443;-55
2023/03/29 02:02:51;;;;;;;0.30;0.20;;;;;;;4.76;41.67;95575.19;5134470;27;20431;-54
2023/03/29 02:05:23;;;;;;;0.30;0.30;;;;;;;3.99;44.39;95554.34;5133719;27;20439;-54
2023/03/29 02:07:52;;;;;;;0.30;0.20;;;;;;;4.24;42.61;95615.34;5134017;27;20510;-55
2023/03/29 02:10:22;;;;;;;0.40;0.33;;;;;;;4.71;43.45;95598.69;5133303;27;20438;-54
2023/03/29 02:12:50;;;;;;;0.30;0.20;;;;;;;4.74;59.26;95615.84;5133381;27;20530;-55
2023/03/29 02:15:22;;;;;;;0.30;0.20;;;;;;;4.03;42.64;95610.56;5132898;27;20446;-54
2023/03/29 02:17:51;;;;;;;0.30;0.20;;;;;;;4.67;48.79;95613.31;5133479;27;20479;-55
2023/03/29 02:20:22;;;;;;;0.30;0.30;;;;;;;4.59;46.33;95600.50;5133175;27;20492;-55
2023/03/29 02:22:58;;;;;;;0.33;0.23;;;;;;;4.79;44.09;95614.13;5133494;27;21005;-54
2023/03/29 02:25:27;;;;;;;0.67;0.57;;;;;;;4.90;43.25;95594.97;5126842;27;20444;-54
2023/03/29 02:27:56;;;;;;;0.30;0.20;;;;;;;5.09;43.60;95620.13;5126697;27;20479;-54
2023/03/29 02:30:30;;;;;;;0.30;0.20;;;;;;;4.71;45.47;95567.19;5106382;27;20434;-54
2023/03/29 02:33:07;;;;;;;0.30;0.20;;;;;;;5.29;46.75;95611.13;5133373;27;20451;-55
2023/03/29 02:35:44;;;;;;;0.40;0.30;;;;;;;4.67;60.33;95492.56;5133431;27;20441;-54
2023/03/29 02:38:13;;;;;;;0.30;0.20;;;;;;;5.54;45.00;95633.47;5132981;27;20958;-54
2023/03/29 02:40:43;;;;;;;0.30;0.20;;;;;;;5.80;45.46;95632.19;5133142;27;20438;-55
2023/03/29 02:43:13;;;;;;;0.30;0.20;;;;;;;5.85;44.85;95640.22;5119946;27;20435;-55
2023/03/29 02:45:44;;;;;;;0.30;0.20;;;;;;;5.89;43.90;95638.75;5133033;27;20504;-55
2023/03/29 02:48:17;;;;;;;0.30;0.20;;;;;;;5.76;42.41;95645.03;5132646;27;20562;-55
2023/03/29 02:50:50;;;;;;;0.40;0.30;;;;;;;5.41;44.52;95659.22;5133043;27;20462;-55
2023/03/29 02:53:23;;;;;;;0.40;0.30;;;;;;;5.72;44.32;95653.59;5132349;27;20459;-55
2023/03/29 02:55:51;;;;;;;0.30;0.20;;;;;;;5.38;42.21;95649.97;5132735;27;20441;-55
2023/03/29 02:58:27;;;;;;;0.40;0.30;;;;;;;5.55;42.38;95658.75;5132780;27;20563;-55
2023/03/29 03:01:00;;;;;;;0.30;0.30;;;;;;;5.74;49.29;95647.06;5132031;27;20441;-55
2023/03/29 03:03:30;;;;;;;0.30;0.30;;;;;;;5.28;43.13;95664.69;5132538;27;20454;-55
2023/03/29 03:06:00;;;;;;;1.03;0.40;;;;;;;5.19;44.04;95627.44;5132502;27;20440;-55
2023/03/29 03:08:29;;;;;;;0.30;0.20;;;;;;;5.72;49.51;95672.78;5132569;27;20533;-55
2023/03/29 03:10:58;;;;;;;0.50;0.50;;;;;;;5.75;51.36;95676.78;5105674;27;20438;-55
2023/03/29 03:13:26;;;;;;;0.30;0.20;;;;;;;5.69;47.70;95675.09;5132385;27;20794;-55
2023/03/29 03:18:44;;;;;;;0.37;0.33;;;;;;;5.73;49.98;95678.88;5131537;27;20928;-55
2023/03/29 03:21:12;;;;;;;0.50;0.50;;;;;;;4.61;44.23;95682.47;5132325;27;20445;-55
2023/03/29 03:23:41;;;;;;;0.60;0.60;;;;;;;4.43;45.37;95648.38;5131896;27;20532;-54
2023/03/29 03:26:09;;;;;;;0.50;0.30;;;;;;;5.03;52.38;95685.91;5132624;27;20439;-55
2023/03/29 03:28:38;;;;;;;0.40;0.40;;;;;;;4.89;46.73;95705.50;5132677;27;20982;-55
2023/03/29 03:31:07;;;;;;;1.57;0.30;;;;;;;4.61;49.61;95671.97;5133040;27;20467;-55
2023/03/29 03:33:35;;;;;;;0.30;0.20;;;;;;;4.99;50.21;95693.41;5132269;27;20965;-55
2023/03/29 03:36:05;;;;;;;0.30;0.20;;;;;;;5.13;46.69;95694.81;5132383;27;20434;-55
2023/03/29 03:38:34;;;;;;;0.37;0.30;;;;;;;4.43;51.08;95700.84;5132087;27;20475;-55
2023/03/29 03:41:03;;;;;;;0.30;0.30;;;;;;;4.65;47.83;95709.06;5131250;27;20574;-54
2023/03/29 03:43:33;;;;;;;0.30;0.30;;;;;;;4.76;51.19;95701.22;5132224;27;20438;-54
2023/03/29 03:46:01;;;;;;;0.30;0.20;;;;;;;4.64;47.27;95700.41;5131837;27;20982;-54
2023/03/29 03:48:30;;;;;;;0.30;0.27;;;;;;;4.62;51.52;95701.63;5131899;27;20950;-54
2023/03/29 03:50:59;;;;;;;3.43;0.30;;;;;;;4.35;54.65;95659.97;5131973;27;20489;-54
2023/03/29 03:53:29;;;;;;;0.43;0.30;;;;;;;4.93;47.11;95711.91;5132237;27;20537;-54
2023/03/29 03:55:57;;;;;;;0.30;0.20;;;;;;;5.12;45.14;95711.63;5132141;27;20941;-54
2023/03/29 03:58:25;;;;;;;0.40;0.30;;;;;;;4.98;44.76;95719.94;5132563;27;20442;-54
2023/03/29 04:00:54;;;;;;;0.40;0.33;;;;;;;4.86;46.42;95688.34;5132272;28;20434;-54
2023/03/29 04:03:23;;;;;;;0.40;0.40;;;;;;;5.04;44.91;95714.56;5132390;28;20480;-54
2023/03/29 04:05:51;;;;;;;0.40;0.30;;;;;;;5.34;49.95;95711.88;5133236;27;20490;-55
2023/03/29 04:08:21;;;;;;;1.00;0.93;;;;;;;5.26;47.99;95720.13;5136080;27;20526;-55
2023/03/29 04:10:54;;;;;;;0.53;0.47;;;;;;;4.99;47.35;95687.38;5136266;27;20488;-54
2023/03/29 04:13:22;;;;;;;0.40;0.20;;;;;;;5.02;44.61;95721.88;5135813;27;20446;-54
2023/03/29 04:15:52;;;;;;;0.93;0.30;;;;;;;4.62;44.16;95709.50;5135990;27;20467;-55
2023/03/29 04:18:21;;;;;;;0.50;0.50;;;;;;;4.48;43.30;95709.69;5135924;27;20454;-54
2023/03/29 04:20:51;;;;;;;0.30;0.20;;;;;;;4.76;43.77;95740.63;5136485;27;20503;-55
2023/03/29 04:23:19;;;;;;;0.40;0.30;;;;;;;5.14;49.99;95741.09;5135616;27;20478;-54
2023/03/29 04:25:48;;;;;;;0.40;0.27;;;;;;;5.25;43.07;95736.88;5135949;27;20452;-56
2023/03/29 04:28:18;;;;;;;0.30;0.20;;;;;;;5.34;45.09;95734.75;5135894;27;20478;-54
2023/03/29 04:30:46;;;;;;;0.30;0.20;;;;;;;5.24;46.62;95734.50;5135683;27;20438;-54
2023/03/29 04:33:15;;;;;;;0.50;0.50;;;;;;;5.19;44.30;95742.25;5135838;27;20862;-55
2023/03/29 04:35:43;;;;;;;0.40;0.40;;;;;;;4.55;43.20;95727.19;5135603;27;20529;-54
2023/03/29 04:38:12;;;;;;;0.30;0.20;;;;;;;4.52;42.70;95731.06;5135408;27;20514;-55
2023/03/29 04:40:40;;;;;;;0.30;0.20;;;;;;;4.31;43.74;95695.56;5135723;27;20813;-54
2023/03/29 04:43:09;;;;;;;0.83;0.83;;;;;;;3.96;42.63;95754.88;5135211;27;20431;-54
2023/03/29 04:45:39;;;;;;;0.50;0.50;;;;;;;3.94;43.69;95764.00;5135921;27;20435;-54
2023/03/29 04:48:07;;;;;;;0.70;0.70;;;;;;;3.70;44.74;95766.41;5135676;27;20553;-55
2023/03/29 04:50:36;;;;;;;0.30;0.20;;;;;;;3.88;45.19;95759.59;5135372;27;20521;-54
2023/03/29 04:53:04;;;;;;;0.70;0.70;;;;;;;3.22;44.36;95760.16;5108372;27;20455;-54
2023/03/29 04:55:33;;;;;;;1.03;1.03;;;;;;;3.05;45.01;95764.31;5134920;27;20525;-54
2023/03/29 04:58:01;;;;;;;2.60;0.60;;;;;;;3.46;44.61;95766.44;5135327;27;20481;-54
2023/03/29 05:00:30;;;;;;;2.93;0.40;;;;;;;3.42;44.25;95765.25;5121321;27;20500;-55
2023/03/29 05:03:00;;;;;;;1.80;1.53;;;;;;;3.75;44.10;95769.19;5134623;27;20821;-55
2023/03/29 05:05:28;;;;;;;1.33;1.23;;;;;;;3.90;43.98;95763.59;5135405;27;20462;-55
2023/03/29 05:07:57;;;;;;;0.37;0.30;;;;;;;3.90;43.10;95763.59;5135225;27;20557;-55
2023/03/29 05:10:26;;;;;;;0.40;0.40;;;;;;;4.13;42.95;95766.41;5134910;27;20435;-55
2023/03/29 05:12:55;;;;;;;0.40;0.37;;;;;;;3.37;40.74;95684.66;5135351;27;20557;-55
2023/03/29 05:15:23;;;;;;;0.30;0.20;;;;;;;3.91;40.80;95759.97;5134967;27;20467;-56
2023/03/29 05:17:52;;;;;;;0.30;0.20;;;;;;;3.78;40.50;95760.09;5135158;27;20443;-56
2023/03/29 05:20:23;;;;;;;0.30;0.20;;;;;;;4.14;40.17;95770.66;5134848;27;20431;-53
2023/03/29 05:22:52;;;;;;;0.30;0.20;;;;;;;4.29;38.98;95741.41;5134640;27;20912;-54
2023/03/29 05:25:20;;;;;;;0.30;0.30;;;;;;;4.30;39.39;95754.31;5134410;27;20794;-54
2023/03/29 05:27:49;;;;;;;0.40;0.30;;;;;;;4.27;39.60;95753.97;5134541;27;20463;-54
2023/03/29 05:30:18;;;;;;;0.53;0.30;;;;;;;4.58;39.59;95745.91;5134843;27;20439;-55
2023/03/29 05:32:46;;;;;;;0.30;0.20;;;;;;;4.46;41.21;95761.59;5134610;27;21025;-54
2023/03/29 05:35:15;;;;;;;0.30;0.20;;;;;;;4.36;41.60;95773.63;5134627;27;20465;-54
2023/03/29 05:37:46;;;;;;;0.30;0.20;;;;;;;4.19;42.58;95783.91;5133560;27;20814;-54
2023/03/29 05:40:14;;;;;;;0.43;0.30;;;;;;;4.43;40.68;95775.16;5134043;27;20467;-54
2023/03/29 05:42:42;;;;;;;0.30;0.30;;;;;;;4.57;41.94;95775.00;5134215;27;20803;-55
2023/03/29 05:45:11;;;;;;;0.30;0.30;;;;;;;4.47;40.44;95728.28;5125492;27;20514;-54
2023/03/29 05:47:40;;;;;;;0.30;0.20;;;;;;;4.68;40.81;95776.91;5129812;27;20475;-55
2023/03/29 05:50:10;;;;;;;0.40;0.30;;;;;;;4.29;42.61;95772.91;5134556;27;20870;-54
2023/03/29 05:52:39;;;;;;;0.30;0.20;;;;;;;4.07;42.50;95709.59;5134185;27;20957;-54
2023/03/29 05:55:10;;;;;;;0.50;0.20;;;;;;;4.93;42.15;95767.84;5133347;27;20445;-55
2023/03/29 05:57:38;;;;;;;2.20;0.40;;;;;;;5.63;42.04;95768.84;5133885;27;20435;-55
2023/03/29 06:00:18;;;;;;;0.33;0.23;;;;;;;5.81;39.53;95770.56;5133814;27;20471;-55
2023/03/29 06:02:47;;;;;;;0.30;0.20;;;;;;;5.76;38.89;95773.09;5133679;27;20527;-55
2023/03/29 06:05:15;;;;;;;0.30;0.30;;;;;;;6.40;38.80;95766.88;5133789;27;20442;-55
2023/03/29 06:07:43;;;;;;;0.30;0.30;;;;;;;5.62;37.88;95774.31;5133566;27;20449;-55
2023/03/29 06:10:14;;;;;;;1.90;0.60;;;;;;;6.11;38.30;95779.19;5132639;27;20442;-54
2023/03/29 06:12:42;;;;;;;0.30;0.20;;;;;;;5.80;37.08;95779.47;5133130;27;20471;-55
2023/03/29 06:15:12;;;;;;;0.40;0.20;;;;;;;6.19;36.91;95776.22;5133823;27;20436;-55
2023/03/29 06:17:40;;;;;;;0.30;0.20;;;;;;;6.52;36.86;95770.31;5133538;27;20440;-55
2023/03/29 06:20:09;;;;;;;0.40;0.40;;;;;;;7.59;34.42;95773.84;5133356;27;20511;-55
2023/03/29 06:22:38;;;;;;;0.40;0.30;;;;;;;7.72;34.22;95686.47;5133443;27;20525;-56
2023/03/29 06:25:09;;;;;;;0.50;0.30;;;;;;;8.52;33.33;95776.59;5133409;27;20461;-56
2023/03/29 06:27:39;;;;;;;0.40;0.30;;;;;;;7.76;33.75;95723.75;5133513;27;20447;-56
2023/03/29 06:30:08;;;;;;;0.60;0.60;;;;;;;8.58;29.70;95769.53;5132875;27;20824;-55
2023/03/29 06:32:37;;;;;;;1.27;0.40;;;;;;;8.25;30.57;95767.75;5133685;27;20528;-54
2023/03/29 06:35:06;;;;;;;0.50;0.50;;;;;;;8.07;32.76;95782.00;5133223;27;20467;-56
2023/03/29 06:37:34;;;;;;;0.30;0.20;;;;;;;8.50;32.79;95788.47;5133487;27;20444;-54
2023/03/29 06:40:06;;;;;;;0.40;0.30;;;;;;;9.37;30.90;95790.00;5133540;27;20441;-55
2023/03/29 06:42:34;;;;;;;0.30;0.20;;;;;;;9.50;31.20;95781.66;5133130;27;20541;-56
2023/03/29 06:45:05;;;;;;;0.60;0.50;;;;;;;9.07;29.45;95794.16;5132952;27;20438;-56
2023/03/29 06:47:33;;;;;;;0.67;0.33;;;;;;;9.26;31.79;95809.44;5133036;27;20440;-54
2023/03/29 06:50:02;;;;;;;0.30;0.20;;;;;;;9.53;30.17;95798.88;5132798;27;20474;-56
2023/03/29 06:52:30;;;;;;;0.30;0.30;;;;;;;10.26;32.08;95811.41;5132517;27;20439;-56
2023/03/29 06:55:00;;;;;;;0.47;0.37;;;;;;;10.40;31.57;95811.78;5132370;27;20478;-57
2023/03/29 06:57:29;;;;;;;0.30;0.20;;;;;;;10.63;33.90;95806.06;5132720;27;20476;-56
2023/03/29 06:59:57;;;;;;;0.30;0.20;;;;;;;10.63;28.81;95801.56;5132697;27;20443;-56
2023/03/29 07:02:27;;;;;;;0.40;0.37;;;;;;;10.06;29.00;95821.84;5132532;27;20532;-56
2023/03/29 07:04:56;;;;;;;0.40;0.40;;;;;;;9.42;29.86;95802.47;5132960;27;20449;-57
2023/03/29 07:07:31;;;;;;;0.30;0.30;;;;;;;10.17;33.70;95795.19;5132462;27;20441;-57
2023/03/29 07:10:00;;;;;;;0.70;0.70;;;;;;;10.43;30.09;95808.59;5133039;27;20863;-58
2023/03/29 07:12:28;;;;;;;0.33;0.23;;;;;;;10.70;28.06;95786.22;5131872;27;20945;-57
2023/03/29 07:14:57;;;;;;;0.30;0.20;;;;;;;10.09;29.36;95786.91;5132412;27;20517;-58
2023/03/29 07:17:27;;;;;;;0.30;0.20;;;;;;;10.01;29.70;95804.06;5132604;27;20479;-57
2023/03/29 07:19:55;;;;;;;0.30;0.30;;;;;;;10.00;30.17;95807.75;5132573;27;20438;-56
2023/03/29 07:22:23;;;;;;;0.37;0.30;;;;;;;9.18;29.93;95803.81;5132667;27;20947;-57
2023/03/29 07:24:52;;;;;;;0.30;0.20;;;;;;;10.34;30.56;95791.59;5132419;27;20554;-58
2023/03/29 07:27:21;;;;;;;0.30;0.20;;;;;;;10.78;30.33;95800.84;5132363;27;20449;-57
2023/03/29 07:29:50;;;;;;;0.30;0.30;;;;;;;10.26;28.56;95813.28;5131918;27;20511;-57
2023/03/29 07:32:18;;;;;;;2.83;0.93;;;;;;;10.05;28.89;95802.50;5132424;27;20451;-57
2023/03/29 07:34:48;;;;;;;0.30;0.30;;;;;;;10.37;28.19;95799.84;5132437;27;20442;-57
2023/03/29 07:37:16;;;;;;;0.37;0.30;;;;;;;9.51;30.00;95787.75;5132828;27;20479;-57
2023/03/29 07:39:44;;;;;;;0.30;0.20;;;;;;;10.27;31.09;95788.38;5131192;27;20431;-57
2023/03/29 07:42:13;;;;;;;0.30;0.20;;;;;;;10.38;29.60;95729.88;5132192;27;20441;-57
2023/03/29 07:44:41;;;;;;;0.30;0.20;;;;;;;11.38;27.46;95779.81;5132680;27;20426;-57
2023/03/29 07:47:09;;;;;;;0.30;0.20;;;;;;;12.48;27.32;95775.59;5132015;27;20949;-58
2023/03/29 07:49:38;;;;;;;0.37;0.30;;;;;;;12.53;29.74;95777.44;5131366;27;20466;-59
2023/03/29 07:52:07;;;;;;;0.30;0.30;;;;;;;12.39;28.26;95779.09;5133077;27;20435;-59
2023/03/29 07:54:36;;;;;;;0.40;0.30;;;;;;;12.29;27.90;95776.44;5132520;27;20434;-61
2023/03/29 07:57:04;;;;;;;0.40;0.30;;;;;;;11.63;28.35;95779.09;5131848;27;20443;-60
2023/03/29 07:59:33;;;;;;;0.40;0.30;;;;;;;10.46;27.50;95784.25;5130481;27;20443;-59
2023/03/29 08:02:01;;;;;;;0.60;0.40;;;;;;;10.99;26.91;95775.22;5132225;27;20452;-59
2023/03/29 08:04:29;;;;;;;0.63;0.63;;;;;;;11.98;27.32;95770.34;5118189;28;20443;-59
2023/03/29 08:06:58;;;;;;;0.30;0.30;;;;;;;11.24;27.27;95741.59;5131606;28;20462;-59
2023/03/29 08:09:28;;;;;;;0.37;0.27;;;;;;;12.61;27.34;95767.06;5131611;28;20463;-61
2023/03/29 08:11:56;;;;;;;0.47;0.37;;;;;;;12.19;26.78;95752.53;5132157;28;20439;-63
2023/03/29 08:14:25;;;;;;;0.30;0.20;;;;;;;12.08;26.46;95767.69;5131256;28;20869;-63
2023/03/29 08:16:53;;;;;;;0.30;0.20;;;;;;;12.41;26.30;95756.47;5131476;28;20521;-60
2023/03/29 08:19:21;;;;;;;0.50;0.50;;;;;;;12.42;27.20;95699.56;5122932;28;20426;-59
2023/03/29 08:21:50;;;;;;;0.40;0.30;;;;;;;12.30;26.08;95754.09;5131784;28;20439;-58
2023/03/29 08:24:19;;;;;;;0.43;0.30;;;;;;;13.84;25.52;95753.63;5131459;28;20470;-57
2023/03/29 08:26:49;;;;;;;0.30;0.20;;;;;;;15.05;29.66;95740.97;5131729;28;20437;-56
2023/03/29 08:29:17;;;;;;;0.43;0.43;;;;;;;13.97;24.82;95706.91;5131412;28;20462;-56
2023/03/29 08:31:46;;;;;;;0.50;0.30;;;;;;;13.00;26.47;95750.44;5131880;27;20431;-55
2023/03/29 08:34:14;;;;;;;0.60;0.60;;;;;;;12.81;25.40;95707.69;5132184;27;20464;-56
2023/03/29 08:36:43;;;;;;;0.30;0.20;;;;;;;12.53;26.78;95706.47;5131866;27;20431;-55
2023/03/29 08:39:11;;;;;;;0.40;0.30;;;;;;;14.11;24.93;95747.03;5131828;28;20474;-55
2023/03/29 08:41:52;;;;;;;0.40;0.30;;;;;;;15.64;24.77;95729.75;5131461;28;20474;-55
2023/03/29 08:44:35;;;;;;;0.40;0.20;;;;;;;14.75;25.60;95750.13;5131159;28;20923;-55
2023/03/29 08:47:14;;;;;;;0.30;0.30;;;;;;;14.53;22.92;95737.31;5131572;28;20435;-55
2023/03/29 08:49:47;;;;;;;0.40;0.30;;;;;;;15.23;23.90;95732.97;5130860;28;20466;-54
2023/03/29 08:52:24;;;;;;;0.43;0.40;;;;;;;15.32;23.15;95743.00;5133762;27;20441;-55
2023/03/29 08:54:56;;;;;;;0.40;0.20;;;;;;;16.06;23.11;95729.59;5135693;27;20511;-55
2023/03/29 08:57:28;;;;;;;0.30;0.30;;;;;;;15.57;22.63;95737.34;5135166;27;20435;-55
2023/03/29 09:00:00;;;;;;;0.40;0.37;;;;;;;16.33;28.86;95724.31;5135079;27;20513;-54
2023/03/29 09:02:33;;;;;;;0.47;0.40;;;;;;;15.33;24.81;95729.34;5135006;27;20529;-55
2023/03/29 09:05:09;;;;;;;0.30;0.20;;;;;;;15.61;22.97;95733.00;5135348;27;20495;-54
2023/03/29 09:07:37;;;;;;;0.43;0.43;;;;;;;15.20;24.87;95706.84;5134965;27;20467;-54
2023/03/29 09:10:05;;;;;;;0.63;0.63;;;;;;;15.22;23.87;95738.59;5135103;27;20466;-54
2023/03/29 09:12:46;;;;;;;0.40;0.30;;;;;;;15.93;22.87;95724.22;5135163;27;20464;-55
2023/03/29 09:15:19;;;;;;;1.03;0.60;;;;;;;15.79;22.54;95726.81;5134887;27;20518;-54
2023/03/29 09:17:55;;;;;;;0.40;0.30;;;;;;;16.15;22.58;95716.34;5134772;27;20522;-55
2023/03/29 09:20:37;;;;;;;0.40;0.30;;;;;;;15.57;22.52;95719.44;5135140;27;20442;-54
2023/03/29 09:23:23;;;;;;;0.70;0.30;;;;;;;16.03;21.99;95660.66;5134609;27;20462;-54
2023/03/29 09:26:00;;;;;;;0.40;0.30;;;;;;;17.06;28.73;95713.53;5134903;27;20437;-56
2023/03/29 09:28:37;;;;;;;0.40;0.40;;;;;;;17.34;23.15;95700.88;5134118;27;20439;-54
2023/03/29 09:31:14;;;;;;;0.40;0.30;;;;;;;17.59;21.81;95708.38;5134670;27;20478;-54
2023/03/29 09:33:46;;;;;;;0.50;0.40;;;;;;;16.66;21.16;95705.53;5134599;27;20446;-54
2023/03/29 09:36:18;;;;;;;0.40;0.30;;;;;;;16.22;23.71;95720.22;5134243;27;20441;-54
2023/03/29 09:38:52;;;;;;;1.27;0.40;;;;;;;15.36;23.01;95714.63;5134795;27;20537;-54
2023/03/29 09:41:28;;;;;;;0.80;0.80;;;;;;;16.38;23.78;95705.50;5134227;27;20507;-54
2023/03/29 09:44:00;;;;;;;4.20;0.73;;;;;;;16.13;22.52;95676.53;5134273;27;20435;-54
2023/03/29 09:46:39;;;;;;;1.47;0.50;;;;;;;17.56;24.63;95655.38;5133320;27;20445;-54
2023/03/29 09:49:13;;;;;;;0.50;0.30;;;;;;;17.42;19.47;95700.16;5134640;27;20850;-54
2023/03/29 09:51:46;;;;;;;0.40;0.30;;;;;;;18.20;23.43;95709.56;5134269;27;20477;-54
2023/03/29 09:54:15;;;;;;;1.47;0.57;;;;;;;18.62;20.97;95695.56;5134197;27;20441;-54
2023/03/29 09:56:43;;;;;;;2.20;0.77;;;;;;;17.96;22.49;95701.06;5133973;27;20495;-54
2023/03/29 09:59:12;;;;;;;0.67;0.67;;;;;;;18.75;20.82;95686.63;5134324;27;20529;-54
2023/03/29 10:01:44;;;;;;;0.60;0.40;;;;;;;18.87;18.07;95668.00;5134793;27;20435;-55
2023/03/29 10:04:14;;;;;;;0.57;0.33;;;;;;;19.26;19.33;95677.88;5132247;27;20811;-55
2023/03/29 10:06:45;;;;;;;0.40;0.30;;;;;;;17.98;19.45;95680.09;5122210;27;20992;-55
2023/03/29 10:09:17;;;;;;;0.60;0.30;;;;;;;18.72;19.02;95656.94;5132846;27;20434;-55
2023/03/29 10:11:49;;;;;;;1.03;0.27;;;;;;;19.80;20.22;95671.13;5134035;27;20523;-55
2023/03/29 10:14:21;;;;;;;0.40;0.30;;;;;;;19.21;19.25;95671.84;5134137;27;20442;-56
2023/03/29 10:16:56;;;;;;;0.40;0.30;;;;;;;19.26;18.75;95663.66;5120315;27;20539;-55
2023/03/29 10:19:29;;;;;;;1.37;0.40;;;;;;;19.78;18.90;95662.56;5134239;27;20426;-55
2023/03/29 10:22:00;;;;;;;0.50;0.27;;;;;;;20.64;20.05;95659.66;5132709;27;20437;-55
2023/03/29 10:24:28;;;;;;;0.40;0.40;;;;;;;20.25;18.45;95661.53;5133520;27;20561;-56
2023/03/29 10:27:00;;;;;;;0.40;0.30;;;;;;;20.30;16.94;95655.19;5134190;27;20856;-55
2023/03/29 10:29:37;;;;;;;0.70;0.70;;;;;;;20.51;17.65;95647.19;5133976;27;20545;-55
2023/03/29 10:32:17;;;;;;;0.30;0.20;;;;;;;19.58;19.72;95655.16;5106623;27;20498;-55
2023/03/29 10:34:47;;;;;;;0.30;0.23;;;;;;;20.37;18.68;95655.47;5133221;27;20437;-55
2023/03/29 10:37:18;;;;;;;0.40;0.30;;;;;;;20.08;19.05;95647.31;5133918;27;20506;-55
2023/03/29 10:39:48;;;;;;;0.50;0.40;;;;;;;19.37;17.88;95648.84;5132988;27;20458;-55
2023/03/29 10:42:19;;;;;;;0.93;0.93;;;;;;;19.54;16.38;95648.81;5132799;27;20465;-55
2023/03/29 10:44:53;;;;;;;0.77;0.77;;;;;;;19.68;16.12;95617.19;5132587;27;20431;-55
2023/03/29 10:47:24;;;;;;;0.40;0.33;;;;;;;19.16;17.22;95632.50;5133069;27;20522;-55
2023/03/29 10:49:54;;;;;;;0.50;0.50;;;;;;;20.30;18.45;95640.94;5106581;27;20443;-55
2023/03/29 10:52:25;;;;;;;0.30;0.30;;;;;;;20.26;18.75;95638.88;5133093;27;20548;-55
2023/03/29 10:54:58;;;;;;;1.27;0.30;;;;;;;19.68;21.70;95644.06;5132802;27;20471;-55
2023/03/29 10:57:34;;;;;;;0.50;0.30;;;;;;;20.22;18.45;95634.44;5132859;27;20438;-55
2023/03/29 11:00:10;;;;;;;1.73;1.07;;;;;;;18.69;19.58;95572.44;5132955;27;20889;-56
2023/03/29 11:03:12;;;;;;;0.40;0.30;;;;;;;19.46;24.12;95615.47;5132887;27;20462;-56
2023/03/29 11:05:54;;;;;;;0.30;0.20;;;;;;;19.72;28.92;95634.25;5132875;27;20426;-56
2023/03/29 11:08:38;;;;;;;0.40;0.30;;;;;;;19.27;17.93;95627.63;5132967;27;20445;-55
2023/03/29 11:11:17;;;;;;;0.40;0.40;;;;;;;18.88;17.38;95621.25;5115227;27;20489;-56
2023/03/29 11:13:54;;;;;;;0.70;0.60;;;;;;;18.81;16.95;95625.50;5125753;27;20441;-55
2023/03/29 11:16:35;;;;;;;0.40;0.30;;;;;;;19.97;19.61;95613.78;5132500;27;20500;-55
2023/03/29 11:19:26;;;;;;;0.50;0.40;;;;;;;19.88;17.56;95616.50;5132918;27;20435;-56
2023/03/29 11:22:02;;;;;;;3.20;0.30;;;;;;;19.40;19.09;95621.31;5119063;27;20442;-55
2023/03/29 11:24:58;;;;;;;0.30;0.20;;;;;;;19.74;17.29;95605.13;5132521;27;20505;-56
2023/03/29 11:27:34;;;;;;;0.40;0.30;;;;;;;19.94;18.33;95609.03;5100853;27;20442;-59
2023/03/29 11:30:17;;;;;;;0.30;0.30;;;;;;;20.55;20.01;95613.91;5119319;27;20803;-58
2023/03/29 11:32:56;;;;;;;0.30;0.20;;;;;;;21.04;20.20;95609.66;5131770;27;20569;-58
2023/03/29 11:35:45;;;;;;;0.40;0.30;;;;;;;20.51;20.72;95596.03;5132874;27;20438;-58
2023/03/29 11:38:22;;;;;;;0.30;0.20;;;;;;;20.20;17.20;95597.09;5132495;27;20441;-55
2023/03/29 11:40:57;;;;;;;0.40;0.40;;;;;;;19.85;16.22;95587.56;5132514;27;20915;-54
2023/03/29 11:43:32;;;;;;;0.30;0.30;;;;;;;19.84;16.38;95588.66;5131609;27;20460;-54
2023/03/29 11:46:08;;;;;;;0.30;0.20;;;;;;;20.20;16.68;95586.31;5132356;27;20439;-55
2023/03/29 11:48:41;;;;;;;0.40;0.37;;;;;;;19.69;17.08;95596.44;5131892;27;20445;-54
2023/03/29 11:51:18;;;;;;;0.33;0.30;;;;;;;20.03;15.31;95580.22;5131891;27;20519;-55
2023/03/29 11:53:58;;;;;;;0.50;0.43;;;;;;;17.78;15.59;95582.19;5132064;27;20517;-54
2023/03/29 11:56:31;;;;;;;0.30;0.20;;;;;;;18.07;17.18;95592.41;5132417;27;20525;-55
2023/03/29 11:59:07;;;;;;;1.07;1.07;;;;;;;18.73;16.69;95594.06;5132261;27;21016;-55
2023/03/29 12:01:40;;;;;;;2.57;0.43;;;;;;;17.88;16.27;95579.25;5131810;27;20763;-54